createdAt,value
2022-09-15T00:02:11.660Z,100813.19
2022-09-15T00:04:38.356Z,100813.19
2022-09-15T00:07:04.867Z,100807.94
2022-09-15T00:09:31.425Z,100814.16
2022-09-15T00:11:57.750Z,100801.09
2022-09-15T00:14:24.203Z,100807.13
2022-09-15T00:16:50.703Z,100809.75
2022-09-15T00:19:17.052Z,100808.09
2022-09-15T00:21:43.363Z,100804.66
2022-09-15T00:24:10.362Z,100801.19
2022-09-15T00:26:37.292Z,100803.00
2022-09-15T00:29:04.871Z,100809.03
2022-09-15T00:31:32.396Z,100809.03
2022-09-15T00:34:02.408Z,100809.03
2022-09-15T00:36:29.261Z,100810.94
2022-09-15T00:38:56.522Z,100806.53
2022-09-15T00:41:24.142Z,100806.66
2022-09-15T00:43:55.518Z,100804.03
2022-09-15T00:46:23.937Z,100808.31
2022-09-15T00:49:11.447Z,100813.69
2022-09-15T00:52:07.268Z,100813.69
2022-09-15T00:54:46.603Z,100812.75
2022-09-15T00:57:42.533Z,100812.88
2022-09-15T01:00:12.868Z,100812.88
2022-09-15T01:02:42.294Z,100811.91
2022-09-15T01:05:11.918Z,100810.25
2022-09-15T01:08:00.278Z,100811.22
2022-09-15T01:10:29.296Z,100805.16
2022-09-15T01:12:59.217Z,100811.22
2022-09-15T01:15:47.947Z,100798.13
2022-09-15T01:18:42.031Z,100809.56
2022-09-15T01:21:31.600Z,100810.53
2022-09-15T01:24:16.715Z,100812.16
2022-09-15T01:27:09.795Z,100812.16
2022-09-15T01:29:54.022Z,100822.78
2022-09-15T01:32:44.964Z,100823.63
2022-09-15T01:35:17.209Z,100823.72
2022-09-15T01:37:50.057Z,100825.41
2022-09-15T01:40:18.873Z,100822.78
2022-09-15T01:42:48.503Z,100823.72
2022-09-15T01:45:28.127Z,100828.97
2022-09-15T01:47:58.893Z,100823.88
2022-09-15T01:50:38.012Z,100836.00
2022-09-15T01:53:12.941Z,100829.09
2022-09-15T01:55:43.304Z,100829.09
2022-09-15T01:58:09.874Z,100829.09
2022-09-15T02:00:43.739Z,100822.91
2022-09-15T02:03:26.007Z,100822.22
2022-09-15T02:06:02.692Z,100823.88
2022-09-15T02:08:38.064Z,100821.38
2022-09-15T02:11:13.079Z,100817.81
2022-09-15T02:13:54.053Z,100823.03
2022-09-15T02:16:23.619Z,100831.03
2022-09-15T02:19:11.960Z,100824.97
2022-09-15T02:21:53.800Z,100820.56
2022-09-15T02:24:26.719Z,100822.38
2022-09-15T02:26:55.206Z,100824.13
2022-09-15T02:29:24.261Z,100824.13
2022-09-15T02:31:53.351Z,100832.00
2022-09-15T02:34:26.180Z,100827.59
2022-09-15T02:36:53.680Z,100828.56
2022-09-15T02:39:26.303Z,100826.75
2022-09-15T02:41:52.678Z,100832.97
2022-09-15T02:44:19.546Z,100834.75
2022-09-15T02:46:45.921Z,100832.97
2022-09-15T02:49:12.991Z,100832.97
2022-09-15T02:51:39.361Z,100826.88
2022-09-15T02:54:05.885Z,100832.13
2022-09-15T02:56:32.206Z,100829.63
2022-09-15T02:58:58.535Z,100830.50
2022-09-15T03:01:31.633Z,100834.88
2022-09-15T03:03:59.042Z,100828.81
2022-09-15T03:06:27.819Z,100834.88
2022-09-15T03:08:58.751Z,100826.19
2022-09-15T03:11:26.958Z,100825.34
2022-09-15T03:13:55.495Z,100825.34
2022-09-15T03:16:22.635Z,100827.03
2022-09-15T03:18:49.057Z,100829.63
2022-09-15T03:21:16.922Z,100831.44
2022-09-15T03:23:43.250Z,100833.22
2022-09-15T03:26:10.838Z,100833.22
2022-09-15T03:28:38.955Z,100834.19
2022-09-15T03:31:07.086Z,100838.56
2022-09-15T03:33:33.898Z,100838.56
2022-09-15T03:36:00.702Z,100843.00
2022-09-15T03:38:27.025Z,100847.28
2022-09-15T03:41:10.460Z,100847.41
2022-09-15T03:43:37.555Z,100845.59
2022-09-15T03:46:06.027Z,100849.19
2022-09-15T03:48:34.659Z,100843.94
2022-09-15T03:51:02.512Z,100849.19
2022-09-15T03:53:31.948Z,100843.13
2022-09-15T03:56:09.446Z,100841.47
2022-09-15T03:58:35.758Z,100857.03
2022-09-15T04:01:02.134Z,100858.00
2022-09-15T04:03:28.440Z,100862.28
2022-09-15T04:05:54.747Z,100858.84
2022-09-15T04:08:21.091Z,100862.41
2022-09-15T04:10:48.135Z,100855.53
2022-09-15T04:13:14.483Z,100851.13
2022-09-15T04:15:40.820Z,100847.69
2022-09-15T04:18:07.147Z,100845.06
2022-09-15T04:20:33.505Z,100851.13
2022-09-15T04:22:59.831Z,100846.81
2022-09-15T04:25:27.801Z,100843.41
2022-09-15T04:27:54.139Z,100841.59
2022-09-15T04:30:20.564Z,100846.00
2022-09-15T04:32:46.925Z,100853.88
2022-09-15T04:35:13.284Z,100847.81
2022-09-15T04:37:39.736Z,100847.81
2022-09-15T04:40:06.641Z,100848.75
2022-09-15T04:42:33.018Z,100849.59
2022-09-15T04:44:59.321Z,100846.16
2022-09-15T04:47:25.636Z,100846.16
2022-09-15T04:49:51.968Z,100850.53
2022-09-15T04:52:18.325Z,100840.91
2022-09-15T04:54:44.701Z,100845.28
2022-09-15T04:57:11.844Z,100846.16
2022-09-15T04:59:38.166Z,100845.28
2022-09-15T05:02:04.861Z,100844.47
2022-09-15T05:04:31.639Z,100834.00
2022-09-15T05:06:57.967Z,100839.25
2022-09-15T05:09:25.174Z,100848.91
2022-09-15T05:11:51.690Z,100846.41
2022-09-15T05:14:18.042Z,100852.47
2022-09-15T05:16:44.364Z,100851.50
2022-09-15T05:19:11.382Z,100843.78
2022-09-15T05:21:38.367Z,100857.69
2022-09-15T05:24:04.768Z,100850.78
2022-09-15T05:26:31.712Z,100842.94
2022-09-15T05:28:58.071Z,100844.75
2022-09-15T05:31:27.115Z,100847.34
2022-09-15T05:33:54.216Z,100843.94
2022-09-15T05:36:24.927Z,100846.53
2022-09-15T05:38:53.313Z,100853.41
2022-09-15T05:41:20.739Z,100853.41
2022-09-15T05:43:48.488Z,100852.59
2022-09-15T05:46:15.996Z,100856.03
2022-09-15T05:48:42.665Z,100857.84
2022-09-15T05:51:09.010Z,100854.41
2022-09-15T05:53:36.522Z,100853.53
2022-09-15T05:56:05.718Z,100853.53
2022-09-15T05:58:32.603Z,100864.88
2022-09-15T06:01:05.488Z,100867.47
2022-09-15T06:03:31.897Z,100855.22
2022-09-15T06:05:59.451Z,100853.41
2022-09-15T06:08:29.576Z,100857.84
2022-09-15T06:11:01.003Z,100858.66
2022-09-15T06:13:27.336Z,100869.97
2022-09-15T06:15:53.642Z,100875.34
2022-09-15T06:18:19.991Z,100873.53
2022-09-15T06:20:46.288Z,100878.78
2022-09-15T06:23:12.578Z,100878.50
2022-09-15T06:25:38.873Z,100875.06
2022-09-15T06:28:05.180Z,100880.31
2022-09-15T06:30:31.475Z,100881.94
2022-09-15T06:32:57.769Z,100883.75
2022-09-15T06:35:24.080Z,100893.25
2022-09-15T06:37:50.407Z,100890.66
2022-09-15T06:40:17.472Z,100892.31
2022-09-15T06:42:44.067Z,100888.03
2022-09-15T06:45:10.521Z,100901.78
2022-09-15T06:47:36.837Z,100894.06
2022-09-15T06:50:04.415Z,100898.38
2022-09-15T06:52:30.720Z,100907.88
2022-09-15T06:54:57.250Z,100913.94
2022-09-15T06:57:23.596Z,100910.50
2022-09-15T06:59:49.905Z,100909.66
2022-09-15T07:02:16.330Z,100917.25
2022-09-15T07:04:42.769Z,100924.28
2022-09-15T07:07:09.200Z,100924.28
2022-09-15T07:09:36.009Z,100926.06
2022-09-15T07:12:04.560Z,100932.94
2022-09-15T07:14:30.893Z,100941.66
2022-09-15T07:16:57.371Z,100938.19
2022-09-15T07:19:23.714Z,100944.25
2022-09-15T07:21:50.440Z,100947.69
2022-09-15T07:24:16.824Z,100952.00
2022-09-15T07:26:43.131Z,100953.88
2022-09-15T07:29:09.631Z,100955.56
2022-09-15T07:31:37.794Z,100955.69
2022-09-15T07:34:05.354Z,100953.06
2022-09-15T07:36:31.905Z,100957.47
2022-09-15T07:38:58.484Z,100962.72
2022-09-15T07:41:28.204Z,100958.44
2022-09-15T07:43:56.674Z,100960.09
2022-09-15T07:46:25.054Z,100956.63
2022-09-15T07:48:56.154Z,100955.81
2022-09-15T07:51:23.146Z,100958.44
2022-09-15T07:53:49.749Z,100956.63
2022-09-15T07:56:20.268Z,100949.63
2022-09-15T07:58:47.458Z,100957.47
2022-09-15T08:01:14.966Z,100963.66
2022-09-15T08:03:45.230Z,100969.72
2022-09-15T08:06:13.048Z,100974.97
2022-09-15T08:08:40.513Z,100980.19
2022-09-15T08:11:08.448Z,100974.97
2022-09-15T08:13:34.947Z,100986.41
2022-09-15T08:16:09.159Z,100989.03
2022-09-15T08:18:36.299Z,100982.81
2022-09-15T08:21:14.861Z,100988.03
2022-09-15T08:23:41.240Z,100984.59
2022-09-15T08:26:13.615Z,100996.03
2022-09-15T08:28:40.587Z,101002.13
2022-09-15T08:31:11.853Z,101000.31
2022-09-15T08:33:43.185Z,101002.94
2022-09-15T08:36:12.006Z,101012.47
2022-09-15T08:38:44.287Z,101009.97
2022-09-15T08:41:22.122Z,101016.03
2022-09-15T08:43:58.598Z,101021.25
2022-09-15T08:46:36.429Z,101021.25
2022-09-15T08:49:40.851Z,101027.31
2022-09-15T08:52:16.079Z,101017.81
2022-09-15T08:54:42.416Z,101030.91
2022-09-15T08:57:13.955Z,101023.88
2022-09-15T08:59:40.508Z,101029.09
2022-09-15T09:02:12.729Z,101031.72
2022-09-15T09:05:03.880Z,101037.78
2022-09-15T09:08:12.119Z,101034.34
2022-09-15T09:10:53.195Z,101039.56
2022-09-15T09:13:37.618Z,101036.97
2022-09-15T09:16:31.624Z,101034.34
2022-09-15T09:19:50.009Z,101036.97
2022-09-15T09:22:19.929Z,101032.53
2022-09-15T09:24:49.929Z,101030.78
2022-09-15T09:27:22.088Z,101041.13
2022-09-15T09:29:51.863Z,101038.50
2022-09-15T09:32:24.378Z,101042.88
2022-09-15T09:35:09.429Z,101039.31
2022-09-15T09:37:36.024Z,101033.28
2022-09-15T09:40:02.488Z,101032.41
2022-09-15T09:42:31.871Z,101035.88
2022-09-15T09:44:58.316Z,101034.91
2022-09-15T09:47:32.668Z,101036.72
2022-09-15T09:49:59.787Z,101035.88
2022-09-15T09:52:35.376Z,101041.00
2022-09-15T09:55:21.624Z,101043.59
2022-09-15T09:57:47.960Z,101053.09
2022-09-15T10:00:36.099Z,101052.16
2022-09-15T10:03:18.959Z,101057.38
2022-09-15T10:06:00.074Z,101049.53
2022-09-15T10:08:26.420Z,101057.38
2022-09-15T10:10:54.319Z,101053.00
2022-09-15T10:13:21.890Z,101050.25
2022-09-15T10:15:54.341Z,101038.94
2022-09-15T10:18:49.880Z,101040.75
2022-09-15T10:21:24.016Z,101049.41
2022-09-15T10:23:50.307Z,101041.56
2022-09-15T10:26:16.563Z,101030.13
2022-09-15T10:28:44.810Z,101027.66
2022-09-15T10:31:25.332Z,101030.94
2022-09-15T10:33:52.564Z,101019.66
2022-09-15T10:36:23.973Z,101017.88
2022-09-15T10:39:06.595Z,101018.72
2022-09-15T10:41:39.361Z,101022.16
2022-09-15T10:44:29.907Z,101006.44
2022-09-15T10:47:28.467Z,101008.13
2022-09-15T10:50:03.648Z,101002.03
2022-09-15T10:52:58.290Z,101008.94
2022-09-15T10:55:52.798Z,101009.75
2022-09-15T10:58:43.642Z,101003.56
2022-09-15T11:01:30.411Z,100995.72
2022-09-15T11:04:40.463Z,101007.00
2022-09-15T11:07:31.685Z,101016.66
2022-09-15T11:10:13.253Z,101007.97
2022-09-15T11:13:05.746Z,101014.03
2022-09-15T11:16:01.412Z,101009.63
2022-09-15T11:18:41.736Z,101009.63
2022-09-15T11:21:24.284Z,101009.63
2022-09-15T11:24:08.224Z,101015.69
2022-09-15T11:26:46.970Z,100990.22
2022-09-15T11:29:29.321Z,101000.69
2022-09-15T11:32:04.061Z,100993.53
2022-09-15T11:34:39.368Z,100997.00
2022-09-15T11:37:23.291Z,100991.75
2022-09-15T11:40:06.694Z,101010.91
2022-09-15T11:42:52.976Z,101009.25
2022-09-15T11:45:25.506Z,101010.06
2022-09-15T11:47:59.251Z,101006.63
2022-09-15T11:50:34.219Z,101022.47
2022-09-15T11:53:03.764Z,101025.91
2022-09-15T11:55:30.035Z,101023.44
2022-09-15T11:58:21.060Z,101023.44
2022-09-15T12:00:51.420Z,101012.13
2022-09-15T12:03:50.519Z,101017.38
2022-09-15T12:06:45.715Z,101006.63
2022-09-15T12:09:15.831Z,100994.25
2022-09-15T12:11:46.232Z,101005.44
2022-09-15T12:14:16.890Z,100994.84
2022-09-15T12:16:44.475Z,100992.91
2022-09-15T12:19:49.709Z,101001.34
2022-09-15T12:22:40.897Z,101007.97
2022-09-15T12:25:19.784Z,100987.75
2022-09-15T12:28:24.080Z,100993.53
2022-09-15T12:31:30.101Z,100997.97
2022-09-15T12:34:35.461Z,100999.03
2022-09-15T12:37:13.576Z,101009.66
2022-09-15T12:39:42.331Z,101012.41
2022-09-15T12:42:24.933Z,101004.69
2022-09-15T12:45:25.820Z,101010.88
2022-09-15T12:48:12.003Z,101022.28
2022-09-15T12:50:42.511Z,101024.22
2022-09-15T12:53:26.424Z,101029.47
2022-09-15T12:56:00.613Z,101030.41
2022-09-15T12:58:39.491Z,101036.63
2022-09-15T13:01:18.623Z,101055.09
2022-09-15T13:03:45.296Z,101043.75
2022-09-15T13:06:16.827Z,101053.50
2022-09-15T13:08:53.663Z,101050.19
2022-09-15T13:11:38.437Z,101046.72
2022-09-15T13:14:07.795Z,101048.41
2022-09-15T13:16:40.404Z,101050.19
2022-09-15T13:19:30.952Z,101046.72
2022-09-15T13:22:06.337Z,101047.69
2022-09-15T13:25:03.623Z,101048.41
2022-09-15T13:27:40.612Z,101047.56
2022-09-15T13:30:35.118Z,101037.94
2022-09-15T13:40:01.478Z,101036.25
2022-09-15T13:42:47.076Z,101040.56
2022-09-15T13:45:22.660Z,101037.94
2022-09-15T13:48:05.726Z,101036.13
2022-09-15T13:50:34.199Z,101032.69
2022-09-15T13:53:06.132Z,101031.72
2022-09-15T13:55:38.518Z,101031.72
2022-09-15T14:00:53.415Z,101028.03
2022-09-15T14:03:25.779Z,101015.91
2022-09-15T14:05:54.128Z,101017.69
2022-09-15T14:08:30.203Z,101024.59
2022-09-15T14:11:01.468Z,101033.41
2022-09-15T14:13:29.394Z,101036.94
2022-09-15T14:16:11.898Z,101050.19
2022-09-15T14:18:44.804Z,101053.78
2022-09-15T14:21:22.009Z,101059.00
2022-09-15T14:23:50.752Z,101046.88
2022-09-15T14:26:20.923Z,101046.03
2022-09-15T14:28:57.910Z,101057.34
2022-09-15T14:31:40.408Z,101059.81
2022-09-15T14:34:29.852Z,101049.94
2022-09-15T14:37:07.165Z,101058.25
2022-09-15T14:39:37.269Z,101060.75
2022-09-15T14:42:31.059Z,101058.00
2022-09-15T14:48:15.922Z,101060.94
2022-09-15T14:50:45.212Z,101059.75
2022-09-15T14:53:20.580Z,101056.41
2022-09-15T14:56:07.059Z,101050.47
2022-09-15T14:58:46.169Z,101060.09
2022-09-15T15:01:17.101Z,101058.34
2022-09-15T15:03:57.594Z,101051.28
2022-09-15T15:06:31.672Z,101051.44
2022-09-15T15:09:03.318Z,101050.59
2022-09-15T15:11:32.791Z,101055.13
2022-09-15T15:13:59.692Z,101044.66
2022-09-15T15:16:28.984Z,101045.38
2022-09-15T15:18:57.023Z,101047.00
2022-09-15T15:21:37.056Z,101052.38
2022-09-15T15:24:12.146Z,101036.78
2022-09-15T15:26:41.363Z,101037.78
2022-09-15T15:29:27.690Z,101047.41
2022-09-15T15:32:13.860Z,101055.13
2022-09-15T15:34:47.469Z,101049.19
2022-09-15T15:37:34.186Z,101050.72
2022-09-15T15:40:05.175Z,101057.47
2022-09-15T15:42:31.839Z,101054.72
2022-09-15T15:45:27.587Z,101053.09
2022-09-15T15:47:54.008Z,101062.59
2022-09-15T15:50:25.560Z,101067.97
2022-09-15T15:52:52.842Z,101068.09
2022-09-15T15:55:20.522Z,101074.31
2022-09-15T15:57:50.179Z,101083.94
2022-09-15T16:00:21.391Z,101081.31
2022-09-15T16:02:48.890Z,101079.53
2022-09-15T16:05:15.411Z,101081.31
2022-09-15T16:07:45.056Z,101081.31
2022-09-15T16:10:19.730Z,101083.13
2022-09-15T16:12:46.041Z,101096.06
2022-09-15T16:15:16.612Z,101091.66
2022-09-15T16:17:46.688Z,101088.09
2022-09-15T16:20:19.576Z,101090.59
2022-09-15T16:22:45.970Z,101085.22
2022-09-15T16:25:16.862Z,101079.97
2022-09-15T16:27:43.215Z,101084.25
2022-09-15T16:30:11.965Z,101092.00
2022-09-15T16:32:39.609Z,101093.66
2022-09-15T16:35:24.544Z,101091.72
2022-09-15T16:37:50.908Z,101091.47
2022-09-15T16:40:17.836Z,101088.97
2022-09-15T16:42:44.309Z,101099.59
2022-09-15T16:45:35.134Z,101105.78
2022-09-15T16:48:04.694Z,101093.66
2022-09-15T16:50:31.255Z,101099.84
2022-09-15T16:52:58.302Z,101099.97
2022-09-15T16:55:35.719Z,101107.97
2022-09-15T16:58:04.118Z,101101.06
2022-09-15T17:00:32.695Z,101096.78
2022-09-15T17:02:59.335Z,101087.28
2022-09-15T17:05:34.526Z,101084.66
2022-09-15T17:08:01.218Z,101073.47
2022-09-15T17:10:27.816Z,101075.13
2022-09-15T17:12:54.289Z,101081.31
2022-09-15T17:15:24.551Z,101080.50
2022-09-15T17:17:51.403Z,101083.13
2022-09-15T17:20:18.834Z,101081.44
2022-09-15T17:22:47.200Z,101086.56
2022-09-15T17:25:23.677Z,101087.53
2022-09-15T17:27:50.707Z,101089.16
2022-09-15T17:30:20.516Z,101089.31
2022-09-15T17:32:47.323Z,101094.53
2022-09-15T17:35:17.176Z,101098.97
2022-09-15T17:37:44.719Z,101093.84
2022-09-15T17:40:12.784Z,101091.22
2022-09-15T17:42:39.486Z,101094.66
2022-09-15T17:45:28.301Z,101105.16
2022-09-15T17:47:54.673Z,101094.78
2022-09-15T17:50:23.210Z,101102.66
2022-09-15T17:52:50.306Z,101101.97
2022-09-15T17:55:22.947Z,101105.53
2022-09-15T17:57:49.970Z,101103.72
2022-09-15T18:00:18.357Z,101108.16
2022-09-15T18:02:49.378Z,101106.47
2022-09-15T18:05:21.930Z,101105.66
2022-09-15T18:07:48.637Z,101108.28
2022-09-15T18:10:16.400Z,101110.91
2022-09-15T18:12:46.834Z,101106.59
2022-09-15T18:15:29.917Z,101108.41
2022-09-15T18:17:58.607Z,101113.66
2022-09-15T18:20:27.761Z,101122.44
2022-09-15T18:22:54.646Z,101122.44
2022-09-15T18:25:25.395Z,101128.59
2022-09-15T18:27:52.051Z,101152.06
2022-09-15T18:30:19.825Z,101173.97
2022-09-15T18:32:46.722Z,101167.78
2022-09-15T18:35:18.353Z,101163.50
2022-09-15T18:37:47.213Z,101160.88
2022-09-15T18:40:16.256Z,101172.19
2022-09-15T18:42:43.373Z,101157.41
2022-09-15T18:45:12.039Z,101167.06
2022-09-15T18:47:38.762Z,101167.06
2022-09-15T18:50:06.480Z,101169.69
2022-09-15T18:52:37.987Z,101166.25
2022-09-15T18:55:05.951Z,101167.06
2022-09-15T18:57:37.140Z,101161.00
2022-09-15T19:00:10.365Z,101151.34
2022-09-15T19:02:36.804Z,101151.34
2022-09-15T19:05:03.538Z,101144.44
2022-09-15T19:07:29.826Z,101153.03
2022-09-15T19:09:56.758Z,101148.84
2022-09-15T19:12:23.546Z,101158.50
2022-09-15T19:14:50.041Z,101154.91
2022-09-15T19:17:16.623Z,101166.25
2022-09-15T19:19:43.397Z,101161.13
2022-09-15T19:22:09.928Z,101167.19
2022-09-15T19:24:36.744Z,101166.38
2022-09-15T19:27:04.790Z,101165.50
2022-09-15T19:29:34.829Z,101156.84
2022-09-15T19:32:03.654Z,101165.50
2022-09-15T19:34:30.357Z,101157.78
2022-09-15T19:36:56.667Z,101162.19
2022-09-15T19:39:23.067Z,101167.44
2022-09-15T19:41:49.549Z,101167.44
2022-09-15T19:44:16.132Z,101172.81
2022-09-15T19:46:42.692Z,101171.00
2022-09-15T19:49:12.520Z,101171.94
2022-09-15T19:51:39.360Z,101173.63
2022-09-15T19:54:06.770Z,101178.16
2022-09-15T19:56:34.131Z,101181.59
2022-09-15T19:59:00.899Z,101184.22
2022-09-15T20:01:29.192Z,101185.16
2022-09-15T20:03:57.168Z,101192.19
2022-09-15T20:06:27.730Z,101190.41
2022-09-15T20:08:58.140Z,101188.75
2022-09-15T20:11:26.207Z,101188.75
2022-09-15T20:13:54.119Z,101180.19
2022-09-15T20:16:22.032Z,101181.97
2022-09-15T20:18:50.332Z,101175.81
2022-09-15T20:21:32.576Z,101174.94
2022-09-15T20:24:07.398Z,101179.38
2022-09-15T20:26:33.727Z,101176.75
2022-09-15T20:29:04.049Z,101175.06
2022-09-15T20:31:32.940Z,101175.94
2022-09-15T20:34:00.830Z,101182.81
2022-09-15T20:36:33.305Z,101186.41
2022-09-15T20:39:01.163Z,101175.94
2022-09-15T20:41:28.392Z,101176.88
2022-09-15T20:43:55.518Z,101178.66
2022-09-15T20:46:23.361Z,101187.59
2022-09-15T20:48:51.344Z,101174.50
2022-09-15T20:51:21.412Z,101175.31
2022-09-15T20:53:49.667Z,101178.06
2022-09-15T20:56:17.296Z,101180.69
2022-09-15T20:58:43.684Z,101180.69
2022-09-15T21:01:14.922Z,101185.09
2022-09-15T21:03:43.071Z,101182.59
2022-09-15T21:06:15.276Z,101182.59
2022-09-15T21:08:42.015Z,101185.34
2022-09-15T21:11:12.560Z,101180.94
2022-09-15T21:13:41.267Z,101187.97
2022-09-15T21:16:10.627Z,101187.13
2022-09-15T21:18:39.158Z,101191.53
2022-09-15T21:21:07.958Z,101188.09
2022-09-15T21:23:42.749Z,101192.34
2022-09-15T21:26:12.195Z,101184.63
2022-09-15T21:28:38.779Z,101188.19
2022-09-15T21:31:08.012Z,101195.22
2022-09-15T21:33:35.522Z,101195.22
2022-09-15T21:36:07.339Z,101205.69
2022-09-15T21:38:34.485Z,101194.41
2022-09-15T21:41:00.843Z,101203.06
2022-09-15T21:43:36.654Z,101197.97
2022-09-15T21:46:05.442Z,101194.53
2022-09-15T21:48:33.424Z,101198.91
2022-09-15T21:51:00.241Z,101196.41
2022-09-15T21:53:27.301Z,101199.03
2022-09-15T21:55:54.294Z,101199.03
2022-09-15T21:58:26.117Z,101201.66
2022-09-15T22:00:52.773Z,101196.41
2022-09-15T22:03:19.224Z,101202.63
2022-09-15T22:05:47.174Z,101203.56
2022-09-15T22:08:16.134Z,101206.31
2022-09-15T22:10:43.629Z,101203.81
2022-09-15T22:13:11.861Z,101207.13
2022-09-15T22:15:38.205Z,101194.03
2022-09-15T22:18:05.320Z,101200.13
2022-09-15T22:20:31.999Z,101195.00
2022-09-15T22:23:01.578Z,101196.66
2022-09-15T22:25:28.876Z,101189.75
2022-09-15T22:27:55.282Z,101189.75
2022-09-15T22:30:21.584Z,101174.06
2022-09-15T22:32:47.907Z,101169.78
2022-09-15T22:35:14.267Z,101169.78
2022-09-15T22:37:40.679Z,101170.63
2022-09-15T22:40:07.606Z,101173.22
2022-09-15T22:42:34.009Z,101172.53
2022-09-15T22:45:00.402Z,101175.16
2022-09-15T22:47:26.783Z,101172.53
2022-09-15T22:49:53.114Z,101169.91
2022-09-15T22:52:21.048Z,101158.59
2022-09-15T22:54:47.362Z,101175.16
2022-09-15T22:57:13.694Z,101170.88
2022-09-15T22:59:40.120Z,101168.38
2022-09-15T23:02:06.473Z,101171.81
2022-09-15T23:04:32.830Z,101174.56
2022-09-15T23:06:59.120Z,101175.41
2022-09-15T23:09:25.489Z,101170.16
2022-09-15T23:11:51.800Z,101179.66
2022-09-15T23:14:18.117Z,101170.16
2022-09-15T23:16:45.050Z,101175.53
2022-09-15T23:19:13.276Z,101177.16
2022-09-15T23:21:39.725Z,101185.13
2022-09-15T23:24:06.391Z,101190.38
2022-09-15T23:26:32.893Z,101181.69
2022-09-15T23:28:59.272Z,101183.47
2022-09-15T23:31:25.730Z,101182.78
2022-09-15T23:33:52.110Z,101178.34
2022-09-15T23:36:19.434Z,101171.34
2022-09-15T23:38:46.764Z,101175.75
2022-09-15T23:41:14.092Z,101173.13
2022-09-15T23:43:40.686Z,101171.34
2022-09-15T23:46:07.204Z,101168.88
2022-09-15T23:48:33.985Z,101166.13
2022-09-15T23:51:00.717Z,101168.88
2022-09-15T23:53:27.293Z,101168.88
2022-09-15T23:55:53.778Z,101176.72
2022-09-15T23:58:20.119Z,101177.66
